Allandale, Florida
Current Conditions -  °F | °C
As of 10:53 PM on Sunday 23 Nov 2014 (Local Time) from KDAB Reporting Station
Broken Clouds Broken Clouds  
Wind Chill: 23°   Ceiling: 5000
Heat Index: 23°   Visibility: 9mi
Dew Point: 22°   Wind: 5mph
Humidity: 93%   Direction: 190°S
Pressure: 29.95"   Gusts: NA
Location:  29.1486°N, 81.0301°W
Report Text: KDAB 240353Z 19004KT 9SM SCT034 BKN050 23/22 A2995 RMK AO2 SLP140 T02330222
Loading
Personal Weather Stations






























Interactive Weather Map New forecast layout! Learn more

10-Day Weather Forecast

Advertisements
Track Severe Weather on mobile